Terminal Aerodrome Forecast
Issued by NWS Bismarck, ND

Home | Current Version | Previous Version | Graphics & Text | Print | Product List | Glossary On
Versions: 1 2 3 4 5 6 7 8 9 10 11 12 13 14 15
454
FTUS43 KBIS 071125
TAFISN
TAF
KISN 071125Z 0712/0812 30030G42KT 6SM -SHSN BLSN OVC035
     FM071800 32031G43KT P6SM OVC015
     FM072300 32022G31KT P6SM BKN045
     FM080500 32019G27KT P6SM SCT200
     FM081100 32013KT P6SM SCT140=

USA.gov is the U.S. government's official web portal to all federal, state and local government web resources and services.